Time;durP1;ratioP1;P1;durP2;ratioP2;P2;SDS_P1;SDS_P2;PMS_P1;PMS_P2;Temp;Humidity;BMP_temperature;BMP_pressure;BME280_temperature;BME280_humidity;BME280_pressure;Samples;Min_cycle;Max_cycle;Signal;HPM_P1;HPM_P2
2022/03/15 00:00:27;;;;;;;16.05;10.43;;;5.60;99.90;;;;;;4981484;28;20045;-81
2022/03/15 00:02:53;;;;;;;16.75;9.23;;;5.60;99.90;;;;;;4960926;28;20038;-81
2022/03/15 00:05:19;;;;;;;16.52;9.70;;;5.50;99.90;;;;;;4974634;28;20486;-81
2022/03/15 00:07:45;;;;;;;20.27;10.00;;;5.40;99.90;;;;;;4973184;28;20528;-81
2022/03/15 00:10:15;;;;;;;15.23;9.25;;;5.40;99.90;;;;;;4963058;28;20121;-80
2022/03/15 00:12:41;;;;;;;17.08;10.10;;;5.40;99.90;;;;;;4970739;28;20056;-80
2022/03/15 00:15:08;;;;;;;19.23;9.10;;;5.40;99.90;;;;;;4967109;28;20022;-81
2022/03/15 00:17:35;;;;;;;15.55;9.30;;;5.30;99.90;;;;;;4981934;28;20042;-80
2022/03/15 00:20:00;;;;;;;15.05;8.98;;;5.40;99.90;;;;;;4985969;28;20065;-83
2022/03/15 00:22:26;;;;;;;18.30;9.50;;;5.30;99.90;;;;;;4988436;28;20501;-81
2022/03/15 00:24:51;;;;;;;16.60;9.00;;;5.40;99.90;;;;;;4996805;28;20029;-81
2022/03/15 00:27:17;;;;;;;16.35;8.82;;;5.30;99.90;;;;;;4989614;28;20457;-80
2022/03/15 00:29:45;;;;;;;14.13;9.25;;;5.30;99.90;;;;;;4984311;28;20038;-81
2022/03/15 00:32:11;;;;;;;18.88;8.63;;;5.20;99.90;;;;;;5001407;28;20029;-81
2022/03/15 00:34:36;;;;;;;16.38;8.48;;;5.20;99.90;;;;;;4969693;28;20042;-82
2022/03/15 00:37:02;;;;;;;16.35;8.65;;;5.20;99.90;;;;;;4982824;28;20030;-81
2022/03/15 00:39:28;;;;;;;16.30;9.70;;;5.10;99.90;;;;;;4981394;28;20026;-81
2022/03/15 00:41:54;;;;;;;14.05;9.02;;;5.10;99.90;;;;;;4989435;28;20409;-81
2022/03/15 00:44:20;;;;;;;21.38;9.48;;;5.10;99.90;;;;;;4972084;28;20076;-80
2022/03/15 00:46:45;;;;;;;18.50;10.63;;;5.00;99.90;;;;;;4984133;28;20080;-81
2022/03/15 00:49:11;;;;;;;18.63;9.15;;;5.00;99.90;;;;;;4975309;28;20061;-82
2022/03/15 00:51:37;;;;;;;17.60;9.32;;;4.90;99.90;;;;;;4971172;28;20054;-81
2022/03/15 00:54:03;;;;;;;16.02;9.93;;;4.90;99.90;;;;;;4985653;28;20403;-81
2022/03/15 00:56:28;;;;;;;22.63;9.70;;;4.90;99.90;;;;;;4971750;28;20076;-80
2022/03/15 00:58:54;;;;;;;24.33;9.90;;;4.80;99.90;;;;;;4983307;28;20120;-81
2022/03/15 01:01:19;;;;;;;23.25;10.50;;;4.80;99.90;;;;;;4987225;28;20037;-81
2022/03/15 01:03:45;;;;;;;15.25;9.02;;;4.80;99.90;;;;;;4991151;28;20025;-81
2022/03/15 01:06:10;;;;;;;12.85;9.38;;;4.80;99.90;;;;;;4999726;28;20404;-80
2022/03/15 01:08:37;;;;;;;20.38;9.85;;;4.80;99.90;;;;;;4984142;28;20045;-81
2022/03/15 01:11:05;;;;;;;15.70;8.82;;;4.70;99.90;;;;;;4984736;28;20049;-81
2022/03/15 01:13:30;;;;;;;15.32;9.13;;;4.70;99.90;;;;;;4989425;28;20038;-81
2022/03/15 01:15:56;;;;;;;21.25;8.18;;;4.70;99.90;;;;;;4984430;28;20032;-80
2022/03/15 01:18:21;;;;;;;22.05;10.48;;;4.70;99.90;;;;;;4978156;28;20338;-82
2022/03/15 01:20:48;;;;;;;20.05;9.40;;;4.70;99.90;;;;;;4980646;28;20120;-80
2022/03/15 01:23:13;;;;;;;15.20;8.60;;;4.70;99.90;;;;;;4998446;28;20305;-80
2022/03/15 01:25:39;;;;;;;22.92;9.75;;;4.70;99.90;;;;;;4983903;28;20386;-80
2022/03/15 01:28:05;;;;;;;16.52;9.48;;;4.80;99.90;;;;;;4987136;28;20556;-81
2022/03/15 01:30:30;;;;;;;13.93;9.48;;;4.80;99.90;;;;;;4997114;28;20034;-80
2022/03/15 01:32:56;;;;;;;19.27;9.38;;;4.70;99.90;;;;;;4974259;28;20099;-80
2022/03/15 01:35:22;;;;;;;23.27;10.02;;;4.60;99.90;;;;;;4975803;28;20030;-80
2022/03/15 01:37:47;;;;;;;20.83;11.07;;;4.60;99.90;;;;;;5002211;28;20049;-80
2022/03/15 01:40:13;;;;;;;20.67;10.43;;;4.60;99.90;;;;;;4987693;28;20037;-81
2022/03/15 01:42:39;;;;;;;23.02;10.40;;;4.50;99.90;;;;;;4990829;28;20544;-81
2022/03/15 01:45:05;;;;;;;15.82;10.20;;;4.50;99.90;;;;;;4971240;28;20414;-81
2022/03/15 01:47:31;;;;;;;18.92;10.30;;;4.50;99.90;;;;;;4973640;28;20044;-82
2022/03/15 01:49:56;;;;;;;18.60;9.60;;;4.50;99.90;;;;;;4970895;28;20034;-81
2022/03/15 01:52:22;;;;;;;18.02;9.57;;;4.50;99.90;;;;;;4973295;28;20045;-80
2022/03/15 01:54:47;;;;;;;16.58;10.38;;;4.50;99.90;;;;;;4974901;28;20034;-80
2022/03/15 01:57:13;;;;;;;21.40;9.55;;;4.50;99.90;;;;;;4973746;28;20034;-80
2022/03/15 01:59:39;;;;;;;20.73;10.48;;;4.60;99.90;;;;;;4984806;28;20038;-81
2022/03/15 02:02:04;;;;;;;18.67;10.52;;;4.50;99.90;;;;;;4969939;28;20037;-82
2022/03/15 02:04:32;;;;;;;20.00;10.10;;;4.50;99.90;;;;;;4981271;28;20464;-80
2022/03/15 02:07:09;;;;;;;16.88;10.45;;;4.50;99.90;;;;;;4966248;28;20400;-82
2022/03/15 02:09:34;;;;;;;18.67;9.82;;;4.50;99.90;;;;;;4974971;28;20136;-81
2022/03/15 02:12:00;;;;;;;20.65;9.82;;;4.50;99.90;;;;;;4971977;28;20129;-80
2022/03/15 02:14:26;;;;;;;22.80;10.45;;;4.50;99.90;;;;;;5000861;28;20034;-80
2022/03/15 02:16:52;;;;;;;19.95;9.40;;;4.50;99.90;;;;;;4969914;28;20111;-81
2022/03/15 02:19:17;;;;;;;18.67;9.73;;;4.60;99.90;;;;;;4986286;28;20418;-81
2022/03/15 02:21:43;;;;;;;18.77;9.73;;;4.60;99.90;;;;;;4973350;28;20029;-81
2022/03/15 02:24:08;;;;;;;19.10;10.07;;;4.50;99.90;;;;;;4995728;28;20389;-81
2022/03/15 02:26:34;;;;;;;18.63;9.73;;;4.50;99.90;;;;;;4978826;28;20080;-81
2022/03/15 02:28:59;;;;;;;20.27;10.75;;;4.60;99.90;;;;;;4995905;28;20528;-81
2022/03/15 02:31:25;;;;;;;21.55;10.18;;;4.60;99.90;;;;;;4987641;28;20481;-81
2022/03/15 02:33:50;;;;;;;20.02;10.35;;;4.50;99.90;;;;;;4982257;28;20075;-80
2022/03/15 02:36:16;;;;;;;18.08;9.68;;;4.50;99.90;;;;;;4970104;28;20040;-82
2022/03/15 02:38:45;;;;;;;21.10;10.57;;;4.50;99.90;;;;;;4987242;28;20034;-81
2022/03/15 02:41:11;;;;;;;17.63;9.85;;;4.50;99.90;;;;;;4987914;28;20041;-81
2022/03/15 02:43:37;;;;;;;17.25;11.05;;;4.50;99.90;;;;;;4980023;28;20084;-81
2022/03/15 02:46:02;;;;;;;16.42;9.50;;;4.50;99.90;;;;;;4999241;28;20022;-81
2022/03/15 02:48:28;;;;;;;20.10;10.35;;;4.40;99.90;;;;;;4984515;28;20508;-81
2022/03/15 02:50:56;;;;;;;18.15;10.57;;;4.50;99.90;;;;;;4966274;28;20501;-81
2022/03/15 02:53:22;;;;;;;21.67;10.60;;;4.50;99.90;;;;;;4989774;28;20025;-81
2022/03/15 02:55:48;;;;;;;15.70;9.85;;;4.50;99.90;;;;;;4995943;28;20477;-80
2022/03/15 02:58:14;;;;;;;20.70;10.65;;;4.40;99.90;;;;;;4994515;28;20030;-81
2022/03/15 03:00:39;;;;;;;17.98;10.55;;;4.40;99.90;;;;;;4989215;28;20038;-81
2022/03/15 03:03:05;;;;;;;20.23;11.00;;;4.40;99.90;;;;;;4979926;28;20033;-81
2022/03/15 03:05:30;;;;;;;18.10;11.40;;;4.50;99.90;;;;;;4974579;28;20042;-82
2022/03/15 03:07:56;;;;;;;20.60;10.63;;;4.40;99.90;;;;;;4983378;28;20408;-81
2022/03/15 03:10:22;;;;;;;19.73;10.57;;;4.50;99.90;;;;;;4984837;28;20125;-80
2022/03/15 03:12:48;;;;;;;19.23;11.07;;;4.50;99.90;;;;;;4965543;28;20040;-81
2022/03/15 03:15:14;;;;;;;20.27;10.57;;;4.50;99.90;;;;;;4965881;28;20493;-81
2022/03/15 03:17:42;;;;;;;18.90;9.48;;;4.50;99.90;;;;;;4966660;28;20252;-81
2022/03/15 03:20:12;;;;;;;14.20;9.95;;;4.50;99.90;;;;;;4981717;28;20037;-81
2022/03/15 03:22:39;;;;;;;16.88;9.38;;;4.50;99.90;;;;;;4995136;28;20035;-81
2022/03/15 03:25:05;;;;;;;17.23;10.10;;;4.50;99.90;;;;;;4979277;28;20033;-81
2022/03/15 03:27:31;;;;;;;15.50;9.68;;;4.60;99.90;;;;;;4977341;28;20033;-81
2022/03/15 03:29:58;;;;;;;20.08;9.77;;;4.50;99.90;;;;;;4987124;28;20037;-81
2022/03/15 03:32:25;;;;;;;16.25;9.75;;;4.50;99.90;;;;;;4983042;28;20544;-81
2022/03/15 03:34:51;;;;;;;16.00;9.48;;;4.60;99.90;;;;;;4974142;28;20037;-80
2022/03/15 03:37:16;;;;;;;21.10;10.02;;;4.60;99.90;;;;;;4972702;28;20405;-80
2022/03/15 03:39:42;;;;;;;17.30;10.20;;;4.60;99.90;;;;;;4982070;28;20030;-81
2022/03/15 03:42:08;;;;;;;17.83;9.63;;;4.60;99.90;;;;;;4998102;28;20056;-81
2022/03/15 03:44:35;;;;;;;23.13;9.70;;;4.50;99.90;;;;;;4991441;28;20034;-81
2022/03/15 03:47:01;;;;;;;17.75;8.75;;;4.50;99.90;;;;;;4970475;28;20033;-81
2022/03/15 03:49:27;;;;;;;17.02;9.25;;;4.50;99.90;;;;;;4971061;28;20037;-81
2022/03/15 03:51:52;;;;;;;15.50;9.38;;;4.50;99.90;;;;;;4969037;28;20020;-81
2022/03/15 03:54:18;;;;;;;17.95;10.02;;;4.50;99.90;;;;;;4984728;28;20026;-81
2022/03/15 03:56:44;;;;;;;14.23;8.18;;;4.60;99.90;;;;;;4966860;28;20442;-81
2022/03/15 03:59:11;;;;;;;19.50;9.10;;;4.60;99.90;;;;;;4974971;28;20049;-81
2022/03/15 04:01:37;;;;;;;22.52;9.45;;;4.60;99.90;;;;;;4984998;28;20164;-81
2022/03/15 04:04:05;;;;;;;17.83;9.32;;;4.70;99.90;;;;;;4975663;28;20029;-81
2022/03/15 04:06:34;;;;;;;18.65;10.63;;;4.60;99.90;;;;;;4991574;28;20041;-82
2022/03/15 04:09:00;;;;;;;16.10;9.38;;;4.50;99.90;;;;;;4982568;28;20061;-82
2022/03/15 04:11:26;;;;;;;19.58;9.48;;;4.50;99.90;;;;;;5001417;28;20049;-82
2022/03/15 04:13:51;;;;;;;19.65;10.07;;;4.50;99.90;;;;;;4973475;28;20034;-82
2022/03/15 04:16:17;;;;;;;15.32;8.95;;;4.40;99.90;;;;;;4967075;28;20095;-82
2022/03/15 04:18:43;;;;;;;20.98;9.43;;;4.40;99.90;;;;;;4971696;28;20493;-82
2022/03/15 04:21:09;;;;;;;13.77;7.50;;;4.50;99.90;;;;;;4986170;28;20033;-81
2022/03/15 04:23:34;;;;;;;17.83;8.48;;;4.50;99.90;;;;;;4999455;28;20457;-82
2022/03/15 04:26:00;;;;;;;15.88;9.25;;;4.70;99.90;;;;;;4979762;28;20060;-80
2022/03/15 04:28:26;;;;;;;16.55;9.00;;;4.60;99.90;;;;;;4985976;28;20064;-81
2022/03/15 04:30:52;;;;;;;16.98;9.15;;;4.50;99.90;;;;;;4998828;28;20498;-81
2022/03/15 04:33:17;;;;;;;14.05;8.50;;;4.50;99.90;;;;;;4989622;28;20053;-82
2022/03/15 04:35:43;;;;;;;15.82;9.57;;;4.50;99.90;;;;;;4971516;28;20790;-82
2022/03/15 04:38:08;;;;;;;14.80;8.88;;;4.50;99.90;;;;;;5002395;28;20037;-82
2022/03/15 04:40:34;;;;;;;14.88;8.00;;;4.50;99.90;;;;;;4987882;28;20141;-81
2022/03/15 04:43:01;;;;;;;11.32;6.68;;;4.50;99.90;;;;;;4972987;28;20643;-81
2022/03/15 04:45:27;;;;;;;17.50;8.30;;;4.60;99.90;;;;;;5003281;28;20536;-82
2022/03/15 04:47:53;;;;;;;15.38;7.32;;;4.70;99.90;;;;;;4985256;28;20038;-82
2022/03/15 04:50:18;;;;;;;11.02;7.05;;;4.70;99.90;;;;;;4990665;28;20038;-81
2022/03/15 04:52:44;;;;;;;14.52;6.70;;;4.70;99.90;;;;;;4968823;28;20065;-81
2022/03/15 04:55:10;;;;;;;16.05;7.82;;;4.70;99.90;;;;;;4975451;28;20132;-81
2022/03/15 04:57:35;;;;;;;12.10;7.22;;;4.70;99.90;;;;;;4972416;28;20037;-81
2022/03/15 05:00:04;;;;;;;10.32;7.32;;;4.60;99.90;;;;;;4975843;28;20689;-81
2022/03/15 05:02:31;;;;;;;16.05;8.52;;;4.70;99.90;;;;;;4988436;28;20029;-81
2022/03/15 05:04:57;;;;;;;18.67;8.20;;;4.70;99.90;;;;;;5020852;28;20036;-81
2022/03/15 05:07:22;;;;;;;14.45;8.82;;;4.60;99.90;;;;;;4980350;28;20397;-81
2022/03/15 05:12:36;;;;;;;17.33;8.85;;;4.60;99.90;;;;;;4987933;28;20220;-81
2022/03/15 05:15:01;;;;;;;19.30;8.75;;;4.60;99.90;;;;;;4985368;28;20109;-81
2022/03/15 05:17:27;;;;;;;16.73;8.25;;;4.60;99.90;;;;;;4970406;28;20159;-81
2022/03/15 05:19:52;;;;;;;15.13;8.57;;;4.60;99.90;;;;;;4987313;28;20111;-81
2022/03/15 05:22:18;;;;;;;15.70;8.10;;;4.60;99.90;;;;;;4987232;28;20025;-81
2022/03/15 05:24:43;;;;;;;15.65;9.18;;;4.60;99.90;;;;;;4986136;28;20029;-81
2022/03/15 05:27:09;;;;;;;14.57;8.85;;;4.60;99.90;;;;;;4972477;28;20188;-81
2022/03/15 05:29:35;;;;;;;17.55;8.68;;;4.60;99.90;;;;;;4970330;28;20569;-81
2022/03/15 05:32:01;;;;;;;22.60;8.45;;;4.60;99.90;;;;;;4990306;28;20489;-81
2022/03/15 05:34:26;;;;;;;19.45;8.20;;;4.60;99.90;;;;;;4988962;28;20042;-81
2022/03/15 05:36:52;;;;;;;18.60;8.43;;;4.60;99.90;;;;;;4985480;28;20044;-81
2022/03/15 05:39:17;;;;;;;13.85;8.25;;;4.60;99.90;;;;;;4999802;28;20176;-82
2022/03/15 05:41:43;;;;;;;17.05;8.27;;;4.60;99.90;;;;;;4983167;28;20045;-81
2022/03/15 05:44:08;;;;;;;17.65;8.95;;;4.60;99.90;;;;;;4984453;28;20189;-81
2022/03/15 05:46:34;;;;;;;18.58;8.63;;;4.60;99.90;;;;;;4990112;28;20042;-81
2022/03/15 05:49:01;;;;;;;15.93;7.28;;;4.70;99.90;;;;;;4977459;28;20251;-82
2022/03/15 05:51:26;;;;;;;16.13;7.88;;;4.60;99.90;;;;;;4963486;28;20192;-81
2022/03/15 05:53:52;;;;;;;18.83;8.35;;;4.70;99.90;;;;;;4983622;28;20033;-82
2022/03/15 05:56:17;;;;;;;17.00;8.15;;;4.70;99.90;;;;;;4998987;28;20389;-82
2022/03/15 05:58:43;;;;;;;14.30;7.70;;;4.60;99.90;;;;;;4986166;28;20034;-82
2022/03/15 06:01:09;;;;;;;12.00;6.72;;;4.70;99.90;;;;;;4975404;28;20037;-81
2022/03/15 06:03:35;;;;;;;11.70;6.55;;;4.70;99.90;;;;;;4986178;28;20053;-80
2022/03/15 06:06:01;;;;;;;17.50;7.13;;;4.80;99.90;;;;;;4971340;28;20813;-81
2022/03/15 06:08:27;;;;;;;9.98;6.15;;;4.80;99.90;;;;;;4987039;28;20061;-80
2022/03/15 06:10:52;;;;;;;17.35;7.28;;;4.80;99.90;;;;;;4987112;28;20044;-81
2022/03/15 06:13:18;;;;;;;16.25;6.88;;;5.00;99.90;;;;;;4976155;28;20037;-80
2022/03/15 06:15:43;;;;;;;15.65;7.13;;;4.90;99.90;;;;;;4985469;28;20199;-80
2022/03/15 06:18:09;;;;;;;13.07;6.05;;;4.80;99.90;;;;;;4970691;28;20104;-81
2022/03/15 06:20:36;;;;;;;15.40;6.40;;;4.80;99.90;;;;;;4977762;28;20590;-80
2022/03/15 06:23:01;;;;;;;8.32;5.28;;;4.90;99.90;;;;;;4990688;28;20044;-80
2022/03/15 06:25:27;;;;;;;11.05;5.90;;;5.00;99.90;;;;;;4971344;28;20061;-81
2022/03/15 06:27:53;;;;;;;12.55;5.70;;;5.10;99.90;;;;;;4982089;28;20626;-81
2022/03/15 06:30:19;;;;;;;13.32;6.20;;;5.10;99.90;;;;;;4995585;28;20030;-81
2022/03/15 06:32:44;;;;;;;17.58;7.18;;;5.00;99.90;;;;;;4970473;28;20037;-82
2022/03/15 06:35:12;;;;;;;14.80;7.13;;;5.00;99.90;;;;;;4985919;28;20038;-81
2022/03/15 06:37:39;;;;;;;10.43;6.28;;;5.00;99.90;;;;;;4996424;28;20022;-82
2022/03/15 06:40:09;;;;;;;17.08;7.00;;;5.00;99.90;;;;;;4982739;28;20044;-82
2022/03/15 06:42:35;;;;;;;13.15;6.43;;;5.00;99.90;;;;;;4986774;28;20064;-82
2022/03/15 06:45:01;;;;;;;19.30;6.13;;;5.00;99.90;;;;;;5005836;28;20091;-85
2022/03/15 06:47:27;;;;;;;8.88;4.50;;;5.10;99.90;;;;;;4976191;28;20121;-85
2022/03/15 06:49:52;;;;;;;10.10;5.55;;;5.30;99.90;;;;;;4993634;28;20041;-86
2022/03/15 06:52:18;;;;;;;9.82;5.43;;;5.40;99.90;;;;;;4967978;28;20033;-86
2022/03/15 06:54:43;;;;;;;12.30;5.72;;;5.40;99.90;;;;;;4965069;28;20563;-85
2022/03/15 06:57:09;;;;;;;17.27;5.80;;;5.50;99.90;;;;;;4983107;28;20049;-84
2022/03/15 06:59:34;;;;;;;9.73;5.13;;;5.60;99.90;;;;;;4999040;28;20033;-86
2022/03/15 07:02:00;;;;;;;14.60;5.53;;;5.60;99.90;;;;;;4985541;28;20025;-84
2022/03/15 07:04:26;;;;;;;12.75;6.10;;;5.70;99.90;;;;;;4970755;28;20037;-85
2022/03/15 07:06:51;;;;;;;12.32;5.82;;;5.70;99.90;;;;;;4969837;28;20026;-84
2022/03/15 07:09:17;;;;;;;10.93;5.10;;;5.80;99.90;;;;;;4983826;28;20117;-84
2022/03/15 07:11:42;;;;;;;11.43;5.60;;;5.80;99.90;;;;;;4980935;28;20129;-84
2022/03/15 07:14:08;;;;;;;14.30;6.13;;;5.80;99.90;;;;;;4983826;28;20113;-83
2022/03/15 07:16:34;;;;;;;11.93;4.93;;;5.80;99.90;;;;;;4999319;28;20069;-83
2022/03/15 07:18:59;;;;;;;10.27;6.05;;;5.80;99.90;;;;;;4998279;28;20248;-83
2022/03/15 07:21:25;;;;;;;13.27;5.20;;;5.80;99.90;;;;;;4992358;28;20438;-83
2022/03/15 07:23:50;;;;;;;11.80;5.63;;;5.90;99.90;;;;;;4989825;28;20555;-83
2022/03/15 07:26:16;;;;;;;11.75;5.03;;;6.00;99.90;;;;;;4980537;28;20030;-83
2022/03/15 07:28:42;;;;;;;16.85;5.05;;;6.00;99.90;;;;;;4985070;28;20110;-84
2022/03/15 07:31:07;;;;;;;8.63;5.57;;;6.10;99.90;;;;;;4987661;28;20037;-83
2022/03/15 07:33:34;;;;;;;10.77;5.07;;;6.20;99.90;;;;;;4976279;28;20493;-83
2022/03/15 07:36:00;;;;;;;18.58;5.40;;;6.20;99.90;;;;;;4991113;28;20038;-83
2022/03/15 07:38:26;;;;;;;10.45;5.28;;;6.30;99.90;;;;;;4995613;28;20044;-83
2022/03/15 07:40:58;;;;;;;14.20;5.20;;;6.30;99.90;;;;;;4992080;28;20034;-83
2022/03/15 07:43:24;;;;;;;17.38;4.82;;;6.40;99.90;;;;;;5008462;28;20568;-84
2022/03/15 07:45:50;;;;;;;8.95;4.97;;;6.50;99.90;;;;;;4977462;28;20034;-84
2022/03/15 07:48:16;;;;;;;10.95;4.90;;;6.50;99.90;;;;;;4976650;28;20421;-84
2022/03/15 07:50:41;;;;;;;9.63;5.07;;;6.60;99.90;;;;;;4990320;28;20050;-83
2022/03/15 07:53:07;;;;;;;11.60;4.63;;;6.60;99.90;;;;;;4979117;28;20056;-85
2022/03/15 07:55:34;;;;;;;6.47;3.65;;;6.70;99.90;;;;;;4989361;28;20164;-83
2022/03/15 07:58:00;;;;;;;8.70;4.28;;;6.80;99.90;;;;;;4970462;28;20116;-83
2022/03/15 08:00:25;;;;;;;10.70;4.95;;;6.90;99.90;;;;;;4994823;28;20129;-83
2022/03/15 08:02:52;;;;;;;10.52;4.80;;;6.90;99.90;;;;;;4984436;28;20095;-82
2022/03/15 08:05:18;;;;;;;8.27;5.32;;;7.00;99.90;;;;;;5003289;28;20068;-84
2022/03/15 08:07:43;;;;;;;14.35;6.43;;;7.00;99.90;;;;;;4984404;28;20441;-85
2022/03/15 08:10:10;;;;;;;9.02;4.97;;;7.10;99.90;;;;;;4991948;28;20124;-84
2022/03/15 08:12:39;;;;;;;8.55;3.92;;;7.20;99.90;;;;;;4992170;28;20057;-83
2022/03/15 08:15:06;;;;;;;8.10;3.72;;;7.30;99.90;;;;;;4989231;28;20037;-84
2022/03/15 08:17:32;;;;;;;13.80;4.32;;;7.30;99.90;;;;;;4988905;28;20153;-84
2022/03/15 08:19:58;;;;;;;8.32;3.40;;;7.50;99.90;;;;;;5001209;28;20087;-83
2022/03/15 08:22:25;;;;;;;11.98;3.55;;;7.50;99.90;;;;;;4978496;28;20042;-84
2022/03/15 08:24:50;;;;;;;9.77;3.70;;;7.60;99.90;;;;;;4988663;28;20122;-83
2022/03/15 08:27:16;;;;;;;11.65;3.97;;;7.70;99.90;;;;;;4990385;28;20112;-84
2022/03/15 08:29:43;;;;;;;7.40;3.75;;;7.80;99.90;;;;;;4993637;28;20029;-84
2022/03/15 08:32:09;;;;;;;8.20;3.78;;;7.90;99.90;;;;;;5008394;28;20022;-84
2022/03/15 08:34:35;;;;;;;6.68;3.05;;;7.90;99.90;;;;;;4979086;28;20026;-84
2022/03/15 08:37:00;;;;;;;5.15;3.55;;;8.00;99.90;;;;;;4992794;28;20403;-84
2022/03/15 08:39:26;;;;;;;7.82;3.90;;;8.00;99.90;;;;;;4981641;28;20058;-83
2022/03/15 08:41:53;;;;;;;8.32;3.20;;;8.10;99.90;;;;;;4990939;28;20428;-84
2022/03/15 08:44:19;;;;;;;9.77;3.55;;;8.20;99.90;;;;;;4980922;28;20065;-83
2022/03/15 08:46:47;;;;;;;7.20;3.42;;;8.30;99.90;;;;;;4971032;28;20520;-84
2022/03/15 08:49:14;;;;;;;9.52;3.65;;;8.30;99.90;;;;;;4977392;28;20035;-86
2022/03/15 08:51:40;;;;;;;6.13;2.92;;;8.30;99.90;;;;;;5000329;28;20018;-85
2022/03/15 08:54:05;;;;;;;8.63;4.30;;;8.40;99.90;;;;;;4994297;28;20117;-84
2022/03/15 08:56:32;;;;;;;7.00;3.05;;;8.40;99.90;;;;;;4976897;28;20025;-85
2022/03/15 08:58:57;;;;;;;12.40;3.90;;;8.50;99.90;;;;;;5006664;28;20026;-84
2022/03/15 09:01:23;;;;;;;4.00;2.55;;;8.60;99.90;;;;;;4974623;28;20046;-85
2022/03/15 09:03:48;;;;;;;4.97;2.60;;;8.60;99.90;;;;;;4979923;28;20038;-84
2022/03/15 09:06:14;;;;;;;9.23;2.97;;;8.60;99.90;;;;;;4992506;28;20113;-84
2022/03/15 09:08:39;;;;;;;5.18;2.42;;;8.60;99.90;;;;;;4993643;28;20053;-84
2022/03/15 09:11:05;;;;;;;5.30;2.83;;;8.70;99.90;;;;;;4975690;28;20026;-85
2022/03/15 09:13:31;;;;;;;7.22;3.00;;;8.80;99.90;;;;;;5003908;28;20046;-84
2022/03/15 09:15:56;;;;;;;7.72;3.13;;;8.80;99.90;;;;;;4985120;28;20097;-85
2022/03/15 09:18:25;;;;;;;8.02;3.60;;;8.90;99.90;;;;;;5001891;28;20504;-85
2022/03/15 09:20:50;;;;;;;8.95;3.50;;;9.10;99.90;;;;;;4978979;28;20042;-84
2022/03/15 09:23:17;;;;;;;7.53;3.15;;;9.20;99.90;;;;;;4988363;28;20282;-84
2022/03/15 09:25:43;;;;;;;6.55;2.97;;;9.20;99.90;;;;;;4988887;28;20030;-84
2022/03/15 09:28:08;;;;;;;4.55;2.85;;;9.30;99.90;;;;;;4998434;28;20075;-83
2022/03/15 09:30:34;;;;;;;8.35;3.63;;;9.20;99.90;;;;;;4987962;28;20029;-83
2022/03/15 09:33:00;;;;;;;6.32;3.28;;;9.20;99.90;;;;;;4989077;28;20041;-83
2022/03/15 09:35:25;;;;;;;5.82;3.25;;;9.40;99.90;;;;;;4991053;28;20045;-83
2022/03/15 09:37:51;;;;;;;10.40;3.63;;;9.50;99.90;;;;;;4987664;28;20045;-83
2022/03/15 09:40:20;;;;;;;10.07;3.33;;;9.60;99.90;;;;;;4978487;28;20034;-83
2022/03/15 09:42:45;;;;;;;8.13;3.65;;;9.70;99.90;;;;;;4978796;28;20029;-84
2022/03/15 09:45:11;;;;;;;8.35;3.70;;;9.80;99.90;;;;;;4990515;28;20033;-83
2022/03/15 09:47:36;;;;;;;7.95;3.15;;;9.80;99.90;;;;;;4997868;28;20034;-83
2022/03/15 09:50:04;;;;;;;5.38;3.17;;;9.90;99.90;;;;;;4990996;28;20025;-83
2022/03/15 09:52:31;;;;;;;10.05;3.33;;;9.90;99.90;;;;;;4989827;28;20029;-83
2022/03/15 09:54:56;;;;;;;5.13;2.55;;;9.90;99.90;;;;;;4977908;28;20030;-83
2022/03/15 09:57:22;;;;;;;8.73;4.75;;;9.80;99.90;;;;;;4971784;28;20036;-83
2022/03/15 09:59:50;;;;;;;3.60;2.47;;;9.90;99.90;;;;;;4973094;28;20030;-83
2022/03/15 10:02:15;;;;;;;8.07;3.47;;;9.90;99.90;;;;;;4985676;28;20029;-84
2022/03/15 10:04:41;;;;;;;11.00;4.15;;;9.90;99.90;;;;;;4986227;28;20029;-83
2022/03/15 10:07:08;;;;;;;7.90;4.43;;;10.00;99.90;;;;;;4974831;28;20021;-82
2022/03/15 10:09:34;;;;;;;11.88;4.55;;;10.00;99.90;;;;;;4986830;28;20045;-83
2022/03/15 10:12:00;;;;;;;10.30;4.25;;;9.90;99.90;;;;;;4967571;28;20033;-82
2022/03/15 10:14:25;;;;;;;10.50;4.65;;;10.00;99.90;;;;;;4965155;28;20116;-82
2022/03/15 10:16:51;;;;;;;8.73;5.32;;;10.00;99.90;;;;;;4996547;28;20037;-82
2022/03/15 10:19:17;;;;;;;11.52;4.93;;;10.00;99.90;;;;;;5001929;28;20104;-82
2022/03/15 10:21:49;;;;;;;10.95;5.30;;;10.10;99.90;;;;;;4999056;28;20660;-83
2022/03/15 10:24:20;;;;;;;6.35;4.32;;;10.10;99.90;;;;;;4987267;28;20124;-82
2022/03/15 10:26:50;;;;;;;5.75;3.15;;;10.10;99.90;;;;;;5001947;28;20029;-82
2022/03/15 10:29:16;;;;;;;10.32;4.70;;;10.00;99.90;;;;;;4970875;28;20030;-82
2022/03/15 10:31:42;;;;;;;9.05;4.47;;;10.10;99.90;;;;;;4969989;28;20037;-82
2022/03/15 10:34:10;;;;;;;9.05;4.35;;;10.20;99.90;;;;;;4987431;28;20498;-82
2022/03/15 10:36:40;;;;;;;5.18;2.83;;;10.20;99.90;;;;;;4995543;28;20037;-82
2022/03/15 10:39:07;;;;;;;10.00;4.30;;;10.00;99.90;;;;;;4987311;28;20124;-82
2022/03/15 10:42:07;;;;;;;12.98;4.18;;;10.00;99.90;;;;;;4982728;28;20469;-83
2022/03/15 10:44:34;;;;;;;11.23;5.15;;;10.20;99.90;;;;;;4986091;28;20034;-83
2022/03/15 10:47:18;;;;;;;6.20;3.50;;;10.40;99.90;;;;;;4966880;28;20112;-83
2022/03/15 10:49:48;;;;;;;8.82;3.55;;;10.50;99.90;;;;;;4975057;28;20041;-83
2022/03/15 10:52:32;;;;;;;9.15;4.18;;;10.60;99.90;;;;;;4988918;28;20033;-83
2022/03/15 10:55:17;;;;;;;7.85;3.92;;;10.60;99.90;;;;;;5001911;28;20106;-83
2022/03/15 10:57:44;;;;;;;9.25;4.57;;;10.70;99.90;;;;;;5005066;28;20037;-84
2022/03/15 11:00:12;;;;;;;6.50;3.10;;;10.80;99.90;;;;;;5014152;28;20035;-83
2022/03/15 11:02:44;;;;;;;9.32;3.88;;;10.80;99.90;;;;;;4985761;28;20057;-82
2022/03/15 11:05:10;;;;;;;4.35;2.80;;;10.80;99.90;;;;;;4992681;28;20026;-83
2022/03/15 11:07:40;;;;;;;8.25;3.85;;;10.90;99.90;;;;;;4979352;28;21423;-83
2022/03/15 11:10:13;;;;;;;6.22;2.40;;;10.90;99.90;;;;;;4999309;28;20038;-83
2022/03/15 11:12:56;;;;;;;6.53;2.35;;;10.80;99.90;;;;;;4994599;28;20083;-83
2022/03/15 11:15:27;;;;;;;3.90;2.22;;;10.90;99.90;;;;;;4989571;28;20049;-84
2022/03/15 11:17:53;;;;;;;6.93;2.85;;;10.90;99.90;;;;;;4991030;28;20107;-84
2022/03/15 11:20:19;;;;;;;6.60;3.38;;;10.80;99.90;;;;;;4983006;28;20038;-82
2022/03/15 11:22:44;;;;;;;7.35;3.00;;;10.90;99.90;;;;;;4972888;28;20026;-83
2022/03/15 11:25:15;;;;;;;6.68;3.15;;;11.00;99.90;;;;;;4991384;28;20048;-83
2022/03/15 11:27:42;;;;;;;9.15;3.63;;;10.90;99.90;;;;;;4985522;28;20144;-82
2022/03/15 11:30:10;;;;;;;5.60;2.55;;;10.90;99.90;;;;;;4984827;28;20490;-82
2022/03/15 11:32:36;;;;;;;4.60;2.53;;;11.00;99.90;;;;;;4987609;28;20037;-83
2022/03/15 11:35:02;;;;;;;5.18;3.00;;;11.20;99.90;;;;;;4984076;28;20034;-84
2022/03/15 11:37:28;;;;;;;5.63;3.10;;;11.50;99.90;;;;;;4981140;28;20045;-82
2022/03/15 11:39:53;;;;;;;4.95;2.40;;;11.50;99.90;;;;;;4997696;28;20038;-83
2022/03/15 11:42:19;;;;;;;5.20;2.20;;;11.40;99.90;;;;;;4974174;28;20069;-82
2022/03/15 11:45:01;;;;;;;4.63;2.45;;;11.40;99.90;;;;;;4983845;28;20033;-82
2022/03/15 11:47:56;;;;;;;9.43;3.17;;;11.30;99.90;;;;;;5015872;28;20034;-83
2022/03/15 11:51:00;;;;;;;4.43;2.40;;;11.30;99.90;;;;;;4995712;28;20485;-82
2022/03/15 11:53:50;;;;;;;7.40;2.70;;;11.40;99.90;;;;;;5002177;28;20108;-82
2022/03/15 11:56:32;;;;;;;4.43;2.65;;;11.50;99.90;;;;;;4979433;28;20077;-82
2022/03/15 11:58:58;;;;;;;8.07;3.40;;;11.60;99.90;;;;;;4290129;28;10000696;-82
2022/03/15 12:01:24;;;;;;;7.43;2.47;;;11.60;99.90;;;;;;4983550;28;20405;-81
2022/03/15 12:03:57;;;;;;;9.10;3.97;;;11.50;99.90;;;;;;4970015;28;20030;-82
2022/03/15 12:06:28;;;;;;;4.65;2.53;;;11.60;99.90;;;;;;4982059;28;20666;-82
2022/03/15 12:08:55;;;;;;;12.02;3.58;;;11.70;99.90;;;;;;4998385;28;20053;-82
2022/03/15 12:11:35;;;;;;;5.30;3.45;;;11.70;99.90;;;;;;4995185;28;20054;-82
2022/03/15 12:14:19;;;;;;;7.28;3.38;;;11.70;99.90;;;;;;5004590;28;20117;-83
2022/03/15 12:16:50;;;;;;;7.90;3.17;;;11.70;99.90;;;;;;4987960;28;20068;-83
2022/03/15 12:22:03;;;;;;;6.88;3.20;;;11.80;99.90;;;;;;5015143;28;20505;-83
2022/03/15 12:24:42;;;;;;;7.47;2.47;;;11.80;99.90;;;;;;4982597;28;20044;-84
2022/03/15 12:27:16;;;;;;;6.32;3.05;;;11.70;99.90;;;;;;4976809;28;20035;-82
2022/03/15 12:29:51;;;;;;;6.75;3.38;;;11.80;99.90;;;;;;4991640;28;20030;-83
2022/03/15 12:32:20;;;;;;;7.05;3.05;;;12.10;99.90;;;;;;4988933;28;20584;-82
2022/03/15 12:34:49;;;;;;;7.97;3.83;;;12.20;99.90;;;;;;4991671;28;20049;-84
2022/03/15 12:37:15;;;;;;;6.38;3.10;;;12.30;99.90;;;;;;4993471;28;20092;-83
2022/03/15 12:39:41;;;;;;;6.72;2.83;;;12.30;99.90;;;;;;4999429;28;20080;-83
2022/03/15 12:42:08;;;;;;;4.72;2.97;;;12.30;99.90;;;;;;4984744;28;20082;-84
2022/03/15 12:44:59;;;;;;;4.90;2.33;;;12.30;99.90;;;;;;5018418;28;20037;-84
2022/03/15 12:47:33;;;;;;;6.57;2.45;;;12.40;99.90;;;;;;5003128;28;20022;-83
2022/03/15 12:50:16;;;;;;;5.90;2.55;;;12.50;99.90;;;;;;4997722;28;20042;-84
2022/03/15 12:52:58;;;;;;;7.15;2.70;;;12.60;99.90;;;;;;5026067;28;20517;-84